Change the Weather History Date:

Monday, July 15, 2013

  Actual Average Record
Temperature  
Mean Temperature 64 °F -  
Max Temperature 71 °F 90 °F 105 °F (1917)
Min Temperature 57 °F 63 °F 52 °F (1951)
Degree Days  
Heating Degree Days 1    
Growing Degree Days 14 (Base 50)    
Moisture  
Dew Point 53 °F    
Average Humidity 72    
Maximum Humidity 94    
Minimum Humidity 50    
Precipitation  
Precipitation 0.21 in - - ()
Sea Level Pressure  
Sea Level Pressure 30.20 in    
Wind  
Wind Speed 10 mph (ENE)    
Max Wind Speed 17 mph    
Max Gust Speed 24 mph    
Visibility 10 miles    
Events      
Averages and records for this station are not official NWS values.
T = Trace of Precipitation, MM = Missing Value Source: NWS Daily Summary

Daily Weather History Graph

Daily Weather History Graph

Search for Another Location

Airport or City:

Trip Planner

Search our weather history database for the weather conditions in past years. The results will help you decide how hot, cold, wet, or windy it might be!

Date:

Astronomy

Jul. 15, 2013 Rise Set
Actual Time 5:51 AM MDT 8:05 PM MDT
Civil Twilight 5:22 AM MDT 8:33 PM MDT
Nautical Twilight 4:47 AM MDT 9:08 PM MDT
Astronomical Twilight 4:09 AM MDT 9:46 PM MDT
Moon 12:51 PM MDT (7/15) No Moon Set
Length of Visible Light 15h 11m
Length of Day
14h 13m
Waxing Crescent, 46% of the Moon is Illuminated
Jul 15
Waxing Crescent
Jul 15
First Quarter
Jul 22
Full
Jul 29
Last Quarter
Aug 6
New

Hourly Weather History & Observations

Time (MDT) Temp. Dew Point Humidity Pressure Visibility Wind Dir Wind Speed Gust Speed Precip Events Conditions
12:15 AM 57.2 °F 53.6 °F 88% 30.20 in 10.0 mi ESE 10.4 mph - N/A   Overcast
12:35 AM 57.2 °F 53.6 °F 88% 30.19 in 10.0 mi ESE 11.5 mph - N/A   Overcast
12:55 AM 57.2 °F 53.6 °F 88% 30.17 in 10.0 mi SE 10.4 mph - N/A   Overcast
1:15 AM 57.2 °F 53.6 °F 88% 30.17 in 7.0 mi ESE 6.9 mph - N/A   Overcast
1:35 AM 57.2 °F 53.6 °F 88% 30.17 in 5.0 mi ESE 5.8 mph - 0.06 in   Overcast
1:55 AM 57.2 °F 53.6 °F 88% 30.17 in 5.0 mi East 6.9 mph - 0.09 in   Overcast
2:15 AM 57.2 °F 53.6 °F 88% 30.17 in 7.0 mi East 11.5 mph - 0.03 in   Overcast
2:35 AM 57.2 °F 53.6 °F 88% 30.17 in 9.0 mi ENE 11.5 mph - 0.03 in   Overcast
2:55 AM 57.2 °F 53.6 °F 88% 30.17 in 5.0 mi ENE 10.4 mph - 0.11 in   Overcast
3:15 AM 57.2 °F 53.6 °F 88% 30.17 in 4.0 mi East 9.2 mph - 0.01 in   Overcast
3:35 AM 57.2 °F 53.6 °F 88% 30.17 in 10.0 mi ENE 8.1 mph - 0.01 in   Overcast
3:55 AM 57.2 °F 53.6 °F 88% 30.17 in 9.0 mi ENE 4.6 mph - 0.01 in   Overcast
4:15 AM 57.2 °F 55.4 °F 94% 30.17 in 10.0 mi ENE 12.7 mph - N/A   Overcast
4:35 AM 57.2 °F 53.6 °F 88% 30.18 in 10.0 mi ENE 15.0 mph - N/A   Overcast
4:55 AM 57.2 °F 53.6 °F 88% 30.18 in 10.0 mi East 15.0 mph - N/A   Overcast
5:15 AM 57.2 °F 53.6 °F 88% 30.18 in 10.0 mi East 12.7 mph - N/A   Overcast
5:35 AM 57.2 °F 53.6 °F 88% 30.19 in 10.0 mi East 11.5 mph - N/A   Overcast
5:55 AM 57.2 °F 53.6 °F 88% 30.19 in 10.0 mi East 12.7 mph - N/A   Overcast
6:15 AM 57.2 °F 51.8 °F 82% 30.19 in 10.0 mi East 11.5 mph - N/A   Overcast
6:35 AM 57.2 °F 53.6 °F 88% 30.20 in 10.0 mi ENE 12.7 mph - N/A   Overcast
6:55 AM 57.2 °F 51.8 °F 82% 30.21 in 10.0 mi ENE 13.8 mph - N/A   Overcast
7:15 AM 57.2 °F 51.8 °F 82% 30.23 in 10.0 mi East 12.7 mph - N/A   Overcast
7:35 AM 57.2 °F 51.8 °F 82% 30.23 in 10.0 mi ENE 10.4 mph - N/A   Overcast
7:55 AM 59.0 °F 53.6 °F 82% 30.23 in 10.0 mi East 13.8 mph - N/A   Overcast
8:15 AM 59.0 °F 53.6 °F 82% 30.23 in 10.0 mi ENE 13.8 mph - N/A   Overcast
8:35 AM 60.8 °F 53.6 °F 77% 30.24 in 10.0 mi East 13.8 mph - N/A   Overcast
8:55 AM 60.8 °F 53.6 °F 77% 30.24 in 10.0 mi ENE 15.0 mph - N/A   Overcast
9:15 AM 60.8 °F 53.6 °F 77% 30.25 in 10.0 mi ENE 15.0 mph 20.7 mph N/A   Overcast
9:35 AM 62.6 °F 51.8 °F 68% 30.25 in 10.0 mi ENE 15.0 mph 19.6 mph N/A   Overcast
9:55 AM 62.6 °F 51.8 °F 68% 30.25 in 10.0 mi ENE 10.4 mph - N/A   Overcast
10:15 AM 64.4 °F 51.8 °F 64% 30.25 in 10.0 mi ENE 9.2 mph - N/A   Overcast
10:35 AM 64.4 °F 51.8 °F 64% 30.24 in 10.0 mi NE 9.2 mph - N/A   Overcast
10:55 AM 64.4 °F 51.8 °F 64% 30.24 in 10.0 mi NE 12.7 mph - N/A   Mostly Cloudy
11:15 AM 66.2 °F 51.8 °F 60% 30.24 in 10.0 mi ENE 11.5 mph 18.4 mph N/A   Mostly Cloudy
11:35 AM 68.0 °F 53.6 °F 60% 30.24 in 10.0 mi NE 16.1 mph 19.6 mph N/A   Mostly Cloudy
11:55 AM 68.0 °F 51.8 °F 56% 30.24 in 10.0 mi NE 15.0 mph - N/A   Mostly Cloudy
12:15 PM 69.8 °F 51.8 °F 53% 30.24 in 10.0 mi NE 17.3 mph 23.0 mph N/A   Mostly Cloudy
12:35 PM 69.8 °F 51.8 °F 53% 30.23 in 10.0 mi ENE 15.0 mph 19.6 mph N/A   Mostly Cloudy
12:55 PM 69.8 °F 51.8 °F 53% 30.23 in 10.0 mi NE 11.5 mph 24.2 mph N/A   Mostly Cloudy
1:15 PM 69.8 °F 51.8 °F 53% 30.23 in 10.0 mi NNE 13.8 mph 17.3 mph N/A   Mostly Cloudy
1:35 PM 69.8 °F 51.8 °F 53% 30.22 in 10.0 mi ENE 17.3 mph 24.2 mph N/A   Overcast
1:55 PM 69.8 °F 51.8 °F 53% 30.22 in 10.0 mi NNE 13.8 mph 18.4 mph N/A   Overcast
2:15 PM 71.6 °F 53.6 °F 53% 30.21 in 10.0 mi NNE 11.5 mph - N/A   Overcast
2:35 PM 71.6 °F 53.6 °F 53% 30.20 in 10.0 mi NE 12.7 mph 19.6 mph N/A   Mostly Cloudy
2:55 PM 71.6 °F 53.6 °F 53% 30.20 in 10.0 mi NNE 10.4 mph 16.1 mph N/A   Overcast
3:15 PM 71.6 °F 53.6 °F 53% 30.19 in 10.0 mi North 12.7 mph - N/A   Mostly Cloudy
3:35 PM 71.6 °F 51.8 °F 50% 30.19 in 10.0 mi NNE 9.2 mph - N/A   Overcast
3:55 PM 69.8 °F 51.8 °F 53% 30.18 in 10.0 mi NE 8.1 mph - N/A   Mostly Cloudy
4:15 PM 69.8 °F 51.8 °F 53% 30.17 in 10.0 mi East 10.4 mph - N/A   Overcast
4:35 PM 66.2 °F 55.4 °F 68% 30.18 in 9.0 mi East 6.9 mph - N/A   Overcast
4:55 PM 68.0 °F 53.6 °F 60% 30.17 in 10.0 mi Calm Calm - N/A   Overcast
5:15 PM 66.2 °F 53.6 °F 64% 30.17 in 10.0 mi NNE 13.8 mph - N/A   Overcast
5:35 PM 66.2 °F 55.4 °F 68% 30.16 in 10.0 mi ENE 6.9 mph - N/A   Overcast
5:55 PM 66.2 °F 53.6 °F 64% 30.16 in 10.0 mi ENE 5.8 mph - N/A   Overcast
6:15 PM 66.2 °F 53.6 °F 64% 30.16 in 10.0 mi East 5.8 mph - N/A   Overcast
6:35 PM 68.0 °F 53.6 °F 60% 30.16 in 10.0 mi East 8.1 mph - N/A   Overcast
6:55 PM 68.0 °F 53.6 °F 60% 30.17 in 10.0 mi ESE 6.9 mph - N/A   Overcast
7:15 PM 66.2 °F 53.6 °F 64% 30.17 in 10.0 mi ESE 8.1 mph - N/A   Overcast
7:35 PM 66.2 °F 53.6 °F 64% 30.18 in 10.0 mi East 8.1 mph - N/A   Overcast
7:55 PM 66.2 °F 53.6 °F 64% 30.18 in 10.0 mi ESE 6.9 mph - N/A   Overcast
8:15 PM 64.4 °F 53.6 °F 68% 30.19 in 10.0 mi ESE 4.6 mph - N/A   Overcast
8:35 PM 64.4 °F 53.6 °F 68% 30.19 in 10.0 mi East 6.9 mph - N/A   Overcast
8:55 PM 64.4 °F 53.6 °F 68% 30.20 in 10.0 mi East 4.6 mph - N/A   Overcast
9:15 PM 64.4 °F 53.6 °F 68% 30.21 in 10.0 mi ESE 4.6 mph - N/A   Overcast
9:35 PM 62.6 °F 53.6 °F 72% 30.22 in 10.0 mi ESE 4.6 mph - N/A   Overcast
9:55 PM 62.6 °F 55.4 °F 77% 30.22 in 10.0 mi East 4.6 mph - N/A   Overcast
10:15 PM 62.6 °F 53.6 °F 72% 30.22 in 10.0 mi ESE 4.6 mph - N/A   Overcast
10:35 PM 62.6 °F 55.4 °F 77% 30.22 in 10.0 mi SE 4.6 mph - N/A   Overcast
10:55 PM 62.6 °F 55.4 °F 77% 30.23 in 10.0 mi SE 4.6 mph - N/A   Overcast
11:15 PM 62.6 °F 53.6 °F 72% 30.23 in 10.0 mi ESE 5.8 mph - N/A   Overcast
11:35 PM 62.6 °F 55.4 °F 77% 30.23 in 10.0 mi ESE 4.6 mph - N/A   Overcast
11:55 PM 62.6 °F 55.4 °F 77% 30.23 in 10.0 mi East 4.6 mph - N/A   Overcast